Aérodrome :
LOGIN :

S'inscrire | Disclaimer

   EN    FR    IT 

 










Légende :    VFR   VFR Marginal   IFR   IFR Intensif   IFR Très Intensif
Visi : 
Plafond : 
>= 8 km
>= 3000ft
5 à 8 km
1000 à 3000 ft
1500m à 5 km
500 à 1000 ft
800 à 1500m
200 à 500 ft
< 800m
< 200 ft
Symboles :   Orages  Brouillard  Fortes neiges  Fortes précipitations  Vent > 20 kt
SIGMETs :   Divers  Orages  Givrage  Turbulence  Onde Orograph.  Cendres Volcan.







- Altitude de l'aérodrome : 194 ft
- Code IATA : LME
- Voir les cartes d'approche


LFRM - Le Mans

DERNIER METAR :
  • 151530Z AUTO 32011KT 280V350 9999 FEW037 07/01 Q1002 TEMPO 30015G25KT 4000 SHRA SCT030CB

METARs EXPIRÉS :
  • 151500Z AUTO 31011G23KT 260V350 9999 FEW037 SCT054 BKN200 08/02 Q1001 TEMPO 4000 SHRA SCT030CB
  • 151430Z AUTO 32012KT 260V360 9999 BKN028 BKN034 BKN200 08/02 Q1000 TEMPO 30015G25KT 4000 SHRA SCT030CB
  • 151400Z AUTO 31012G23KT 270V350 9999 BKN029/// OVC037/// ///CB 09/03 Q1000 TEMPO 4000 SHRA
  • 151330Z AUTO 30012KT 260V360 9999 BKN024 BKN032 09/03 Q1000 TEMPO 29015G25KT 4000 SHRA SCT030CB
  • 151300Z AUTO 29009KT 250V350 9999 BKN021 08/04 Q0999 TEMPO 29015G25KT 4000 SHRA SCT030CB

TAF TAF LFRM
Valide du 15 à 15h jusqu'au 16 à 00h UTC


151400Z 1515/1524 29010KT 9999 SCT030 SCT040
TEMPO 1515/1517 30015G25KT 4000 SHRA SCT030CB
Pas de NOTAMs connus pour ce terrain.



MET'MAP, la Météo Aéronautique d'un coup d'oeil ! - Copyright ORBIFLY Décembre 2007 - Disclaimer

ORBIFLY MET'MAP TEAM :

Programmation & Développement : Alexandra Zaïnal
Conception & Développement : Baudouin d'Aumeries
Co-Programmation & Développement : Marc-Olivier Méhu
Soutien technique & logistique : Manuel Goepfert

Contact : metmap@orbifly.com




SOURCES & CREDITS :

   NOAA